Time;durP1;ratioP1;P1;durP2;ratioP2;P2;SDS_P1;SDS_P2;PMS_P1;PMS_P2;Temp;Humidity;BMP_temperature;BMP_pressure;BME280_temperature;BME280_humidity;BME280_pressure;Samples;Min_cycle;Max_cycle;Signal;HPM_P1;HPM_P2
2022/05/29 00:00:28;;;;;;;0.50;0.22;;;22.80;61.60;;;;;;5053535;28;20224;-74
2022/05/29 00:02:55;;;;;;;0.43;0.20;;;22.80;61.70;;;;;;5053568;28;20200;-74
2022/05/29 00:05:22;;;;;;;0.65;0.22;;;22.80;61.80;;;;;;5053375;28;20254;-74
2022/05/29 00:07:50;;;;;;;0.52;0.32;;;22.80;62.00;;;;;;5053416;28;20200;-74
2022/05/29 00:10:18;;;;;;;1.35;0.50;;;22.80;62.00;;;;;;5053364;28;20200;-74
2022/05/29 00:12:45;;;;;;;0.63;0.30;;;22.80;62.10;;;;;;5053099;28;20667;-74
2022/05/29 00:15:14;;;;;;;4.40;0.40;;;22.80;62.40;;;;;;5053201;28;20230;-74
2022/05/29 00:17:42;;;;;;;3.42;0.60;;;22.80;62.50;;;;;;5053311;28;20574;-74
2022/05/29 00:20:10;;;;;;;2.70;0.40;;;22.80;62.70;;;;;;5052971;28;20675;-74
2022/05/29 00:22:37;;;;;;;1.55;0.25;;;22.80;62.80;;;;;;5053140;28;20718;-74
2022/05/29 00:25:09;;;;;;;5.68;0.30;;;22.80;63.00;;;;;;5054575;28;20230;-75
2022/05/29 00:27:36;;;;;;;1.55;0.20;;;22.90;63.20;;;;;;5056930;28;20185;-75
2022/05/29 00:30:04;;;;;;;4.10;0.38;;;22.90;63.40;;;;;;5056936;28;20200;-75
2022/05/29 00:32:32;;;;;;;0.40;0.40;;;22.90;63.50;;;;;;5057120;28;20196;-75
2022/05/29 00:35:00;;;;;;;2.17;0.55;;;22.90;63.70;;;;;;5057063;28;20224;-75
2022/05/29 00:37:27;;;;;;;0.98;0.20;;;22.90;63.80;;;;;;5056951;28;20196;-75
2022/05/29 00:39:55;;;;;;;0.40;0.28;;;22.80;63.80;;;;;;5056961;28;20210;-75
2022/05/29 00:42:24;;;;;;;0.38;0.38;;;22.80;64.00;;;;;;5056920;28;20204;-75
2022/05/29 00:44:51;;;;;;;2.20;0.40;;;22.80;64.10;;;;;;5056574;28;20228;-75
2022/05/29 00:47:21;;;;;;;0.73;0.30;;;22.80;64.30;;;;;;5056787;28;20204;-75
2022/05/29 00:49:51;;;;;;;2.80;0.40;;;22.80;64.40;;;;;;5056807;28;20227;-75
2022/05/29 00:52:21;;;;;;;2.15;0.35;;;22.80;64.60;;;;;;5056704;28;20228;-75
2022/05/29 00:54:54;;;;;;;0.40;0.40;;;22.80;64.80;;;;;;5056250;28;20720;-74
2022/05/29 00:57:26;;;;;;;0.75;0.20;;;22.80;64.80;;;;;;5056676;28;20195;-74
2022/05/29 00:59:55;;;;;;;3.30;0.40;;;22.90;64.90;;;;;;5056580;28;20195;-74
2022/05/29 01:02:22;;;;;;;2.13;0.45;;;22.80;64.80;;;;;;5056425;28;20608;-74
2022/05/29 01:04:50;;;;;;;5.00;0.75;;;22.80;64.80;;;;;;5056127;28;20303;-74
2022/05/29 01:07:19;;;;;;;1.92;0.40;;;22.80;65.10;;;;;;5056365;28;20226;-74
2022/05/29 01:09:49;;;;;;;0.45;0.30;;;22.80;65.20;;;;;;5056291;28;20200;-74
2022/05/29 01:12:31;;;;;;;3.70;1.10;;;22.80;65.40;;;;;;5055937;28;20681;-74
2022/05/29 01:15:07;;;;;;;1.58;0.30;;;22.90;65.60;;;;;;5055776;28;20276;-74
2022/05/29 01:17:43;;;;;;;1.60;0.30;;;22.80;65.70;;;;;;5056234;28;20188;-75
2022/05/29 01:20:28;;;;;;;1.05;0.35;;;22.80;65.80;;;;;;5056210;28;20188;-75
2022/05/29 01:23:27;;;;;;;1.65;0.40;;;22.80;65.90;;;;;;5056188;28;20198;-75
2022/05/29 01:26:29;;;;;;;2.00;0.25;;;22.90;66.10;;;;;;5056087;28;20196;-75
2022/05/29 01:29:00;;;;;;;0.20;0.20;;;22.80;66.10;;;;;;4994481;28;20190;-75
2022/05/29 01:31:39;;;;;;;1.75;0.38;;;22.80;66.50;;;;;;5045406;28;20206;-75
2022/05/29 01:34:15;;;;;;;1.40;0.20;;;22.80;66.60;;;;;;5055793;28;20246;-75
2022/05/29 01:36:49;;;;;;;0.30;0.30;;;22.80;66.70;;;;;;5055275;28;20194;-75
2022/05/29 01:39:23;;;;;;;0.70;0.40;;;22.80;66.80;;;;;;5055788;28;20191;-75
2022/05/29 01:41:57;;;;;;;0.32;0.30;;;22.80;66.90;;;;;;5055832;28;20188;-75
2022/05/29 01:44:34;;;;;;;0.40;0.40;;;22.80;67.00;;;;;;5055926;28;20242;-75
2022/05/29 01:47:07;;;;;;;1.35;0.30;;;22.80;67.10;;;;;;5055701;28;20184;-75
2022/05/29 01:49:40;;;;;;;0.20;0.20;;;22.80;67.20;;;;;;5055330;28;20671;-75
2022/05/29 01:52:12;;;;;;;3.13;0.40;;;22.80;67.30;;;;;;5055555;28;20180;-75
2022/05/29 01:54:44;;;;;;;1.17;0.20;;;22.80;67.40;;;;;;5055141;28;20228;-75
2022/05/29 01:57:17;;;;;;;1.02;0.20;;;22.80;67.50;;;;;;5055493;28;20188;-75
2022/05/29 01:59:49;;;;;;;0.90;0.20;;;22.80;67.70;;;;;;5055072;28;20525;-75
2022/05/29 02:02:19;;;;;;;0.73;0.30;;;22.70;67.60;;;;;;5055434;28;20375;-75
2022/05/29 02:04:48;;;;;;;3.92;0.52;;;22.80;67.80;;;;;;5055317;28;20216;-75
2022/05/29 02:10:10;;;;;;;5.28;0.40;;;22.80;68.10;;;;;;5055110;28;20643;-75
2022/05/29 02:12:42;;;;;;;1.33;0.40;;;22.80;68.20;;;;;;5055154;28;20277;-75
2022/05/29 02:15:15;;;;;;;0.45;0.30;;;22.80;68.30;;;;;;5054985;28;20231;-75
2022/05/29 02:17:47;;;;;;;0.52;0.30;;;22.80;68.40;;;;;;5054846;28;20650;-75
2022/05/29 02:20:18;;;;;;;0.20;0.20;;;22.80;68.50;;;;;;5054821;28;20198;-75
2022/05/29 02:22:48;;;;;;;0.40;0.20;;;22.80;68.60;;;;;;5054965;28;20194;-75
2022/05/29 02:25:18;;;;;;;0.75;0.20;;;22.80;68.70;;;;;;5055601;28;20216;-75
2022/05/29 02:27:51;;;;;;;2.60;0.28;;;22.80;68.80;;;;;;5055026;28;20189;-75
2022/05/29 02:30:19;;;;;;;10.57;0.40;;;22.80;68.90;;;;;;5054886;28;20189;-75
2022/05/29 02:32:55;;;;;;;1.23;0.30;;;22.80;69.00;;;;;;5054720;28;20223;-75
2022/05/29 02:35:28;;;;;;;4.38;0.40;;;22.80;69.10;;;;;;5054609;28;20314;-75
2022/05/29 02:38:01;;;;;;;1.45;0.28;;;22.80;69.20;;;;;;5054739;28;20216;-75
2022/05/29 02:40:33;;;;;;;1.42;0.40;;;22.70;69.20;;;;;;5054302;28;20188;-75
2022/05/29 02:43:07;;;;;;;0.98;0.25;;;22.80;69.40;;;;;;5054309;28;20754;-74
2022/05/29 02:45:43;;;;;;;8.43;0.70;;;22.80;69.50;;;;;;5054093;28;20230;-74
2022/05/29 02:48:23;;;;;;;1.10;0.30;;;22.80;70.30;;;;;;5053549;28;20299;-74
2022/05/29 02:50:57;;;;;;;2.13;0.32;;;22.80;69.60;;;;;;5054097;28;20724;-74
2022/05/29 02:53:24;;;;;;;2.75;0.38;;;22.80;69.80;;;;;;5054361;28;20198;-74
2022/05/29 02:55:53;;;;;;;5.53;0.40;;;22.70;69.80;;;;;;5053931;28;20216;-74
2022/05/29 02:58:25;;;;;;;0.98;0.32;;;22.80;70.00;;;;;;5054000;28;20674;-74
2022/05/29 03:01:11;;;;;;;1.15;0.30;;;22.80;70.00;;;;;;5054217;28;20188;-74
2022/05/29 03:03:46;;;;;;;4.35;0.40;;;22.80;70.00;;;;;;5054161;28;20188;-74
2022/05/29 03:06:29;;;;;;;2.33;0.30;;;22.80;70.20;;;;;;5054201;28;20187;-74
2022/05/29 03:09:10;;;;;;;0.30;0.20;;;22.80;70.30;;;;;;5054119;28;20188;-74
2022/05/29 03:11:40;;;;;;;0.20;0.20;;;22.80;70.50;;;;;;5053772;28;20549;-74
2022/05/29 03:14:11;;;;;;;1.40;0.40;;;22.70;70.60;;;;;;5053820;28;20230;-74
2022/05/29 03:16:56;;;;;;;0.30;0.20;;;22.70;70.60;;;;;;5053946;28;20194;-74
2022/05/29 03:19:30;;;;;;;0.28;0.28;;;22.70;70.60;;;;;;5053966;28;20550;-74
2022/05/29 03:22:06;;;;;;;0.95;0.40;;;22.70;70.70;;;;;;5053896;28;20191;-74
2022/05/29 03:24:42;;;;;;;0.10;0.10;;;22.70;70.70;;;;;;5053848;28;20218;-74
2022/05/29 03:27:14;;;;;;;1.85;0.22;;;22.70;70.70;;;;;;5053840;28;20183;-74
2022/05/29 03:29:46;;;;;;;0.17;0.17;;;22.70;70.70;;;;;;5053761;28;20189;-74
2022/05/29 03:32:16;;;;;;;1.98;0.30;;;22.70;70.70;;;;;;5053803;28;20194;-74
2022/05/29 03:34:43;;;;;;;1.83;0.30;;;22.70;70.70;;;;;;5053261;28;20713;-74
2022/05/29 03:37:10;;;;;;;1.90;0.20;;;22.70;70.70;;;;;;5053641;28;20291;-74
2022/05/29 03:39:36;;;;;;;0.25;0.20;;;22.70;70.70;;;;;;5053284;28;20681;-74
2022/05/29 03:42:05;;;;;;;0.30;0.20;;;22.70;70.70;;;;;;5053274;28;20777;-74
2022/05/29 03:44:32;;;;;;;0.10;0.10;;;22.70;70.70;;;;;;5053089;28;20270;-74
2022/05/29 03:46:59;;;;;;;0.20;0.20;;;22.70;70.80;;;;;;5053229;28;20566;-74
2022/05/29 03:49:28;;;;;;;0.38;0.30;;;22.70;70.90;;;;;;5053425;28;20196;-74
2022/05/29 03:51:55;;;;;;;1.23;0.10;;;22.70;71.00;;;;;;5053138;28;20208;-74
2022/05/29 03:54:22;;;;;;;0.20;0.20;;;22.70;71.10;;;;;;5053333;28;20220;-74
2022/05/29 03:56:49;;;;;;;3.40;0.30;;;22.70;71.30;;;;;;5053388;28;20226;-74
2022/05/29 03:59:16;;;;;;;0.45;0.38;;;22.70;71.40;;;;;;5054248;28;20200;-74
2022/05/29 04:01:43;;;;;;;0.10;0.10;;;22.70;71.50;;;;;;5060064;28;20203;-74
2022/05/29 04:04:10;;;;;;;4.68;0.52;;;22.70;71.50;;;;;;5059904;28;20230;-74
2022/05/29 04:06:40;;;;;;;0.38;0.20;;;22.70;71.70;;;;;;5059768;28;20196;-74
2022/05/29 04:12:05;;;;;;;6.05;0.40;;;22.70;71.90;;;;;;5059829;28;20179;-74
2022/05/29 04:14:33;;;;;;;1.35;0.40;;;22.70;72.00;;;;;;5059499;28;20770;-74
2022/05/29 04:17:00;;;;;;;0.80;0.22;;;22.70;72.10;;;;;;5059877;28;20204;-74
2022/05/29 04:19:27;;;;;;;3.83;0.30;;;22.70;72.20;;;;;;5059910;28;20196;-74
2022/05/29 04:21:55;;;;;;;0.28;0.15;;;22.70;72.30;;;;;;5059933;28;20291;-74
2022/05/29 04:24:22;;;;;;;0.52;0.20;;;22.70;72.30;;;;;;5059731;28;20223;-74
2022/05/29 04:26:50;;;;;;;0.20;0.20;;;22.70;72.40;;;;;;5059780;28;20284;-74
2022/05/29 04:29:17;;;;;;;1.60;0.40;;;22.70;72.60;;;;;;5059775;28;20283;-74
2022/05/29 04:32:59;;;;;;;0.75;0.20;;;22.70;72.60;;;;;;5059778;28;20200;-74
2022/05/29 04:34:30;;;;;;;0.80;0.32;;;22.70;72.70;;;;;;5059280;28;20231;-74
2022/05/29 04:36:58;;;;;;;0.80;0.28;;;22.70;72.90;;;;;;5059387;28;20557;-74
2022/05/29 04:39:26;;;;;;;0.65;0.30;;;22.70;72.90;;;;;;5059458;28;20606;-74
2022/05/29 04:41:53;;;;;;;0.63;0.38;;;22.70;73.00;;;;;;5059420;28;20206;-74
2022/05/29 04:44:20;;;;;;;2.65;0.40;;;22.70;73.10;;;;;;5059304;28;20319;-74
2022/05/29 04:46:47;;;;;;;2.38;0.25;;;22.70;73.20;;;;;;5059666;28;20234;-74
2022/05/29 04:49:13;;;;;;;0.30;0.30;;;22.70;73.20;;;;;;5059643;28;20247;-74
2022/05/29 04:51:40;;;;;;;0.30;0.30;;;22.70;73.30;;;;;;5059564;28;20206;-74
2022/05/29 04:54:09;;;;;;;0.68;0.30;;;22.70;73.40;;;;;;5059566;28;20254;-74
2022/05/29 04:56:35;;;;;;;0.10;0.10;;;22.70;73.50;;;;;;5059570;28;20614;-74
2022/05/29 04:59:02;;;;;;;0.20;0.20;;;22.70;73.60;;;;;;5059252;28;20196;-74
2022/05/29 05:01:29;;;;;;;0.52;0.30;;;22.70;73.60;;;;;;5059530;28;20196;-74
2022/05/29 05:03:56;;;;;;;1.80;0.25;;;22.70;74.50;;;;;;5059179;28;20648;-74
2022/05/29 05:06:23;;;;;;;0.40;0.20;;;22.70;73.80;;;;;;5059504;28;20198;-74
2022/05/29 05:08:50;;;;;;;0.10;0.10;;;22.70;73.90;;;;;;5059500;28;20196;-74
2022/05/29 05:11:18;;;;;;;0.47;0.20;;;22.70;74.10;;;;;;5057284;28;20203;-74
2022/05/29 05:13:45;;;;;;;0.80;0.30;;;22.70;74.10;;;;;;5056273;28;20312;-74
2022/05/29 05:16:12;;;;;;;0.13;0.10;;;22.70;74.20;;;;;;5056129;28;20223;-74
2022/05/29 05:18:38;;;;;;;0.90;0.30;;;22.70;74.40;;;;;;5056209;28;20236;-74
2022/05/29 05:21:07;;;;;;;1.75;0.30;;;22.70;74.50;;;;;;5056115;28;20287;-74
2022/05/29 05:23:33;;;;;;;3.35;0.60;;;22.70;74.50;;;;;;5056019;28;20204;-74
2022/05/29 05:26:01;;;;;;;1.70;0.57;;;22.70;74.70;;;;;;5056089;28;20204;-74
2022/05/29 05:28:29;;;;;;;2.42;0.40;;;22.70;74.80;;;;;;5055697;28;20697;-74
2022/05/29 05:30:56;;;;;;;1.70;0.20;;;22.70;75.00;;;;;;5055646;28;20627;-74
2022/05/29 05:33:22;;;;;;;0.32;0.30;;;22.70;75.00;;;;;;5055851;28;20292;-74
2022/05/29 05:35:49;;;;;;;0.40;0.30;;;22.70;75.10;;;;;;5055738;28;20220;-74
2022/05/29 05:38:16;;;;;;;0.38;0.30;;;22.70;75.10;;;;;;5055484;28;20681;-74
2022/05/29 05:40:43;;;;;;;0.30;0.30;;;22.70;75.20;;;;;;5055522;28;20734;-74
2022/05/29 05:43:10;;;;;;;0.63;0.20;;;22.70;75.30;;;;;;5055777;28;20200;-74
2022/05/29 05:45:40;;;;;;;2.28;0.50;;;22.70;75.40;;;;;;5055185;28;20319;-74
2022/05/29 05:48:08;;;;;;;3.13;0.30;;;22.70;75.50;;;;;;5055361;28;20632;-75
2022/05/29 05:50:36;;;;;;;0.20;0.20;;;22.70;75.60;;;;;;5055622;28;20211;-74
2022/05/29 05:53:03;;;;;;;0.98;0.20;;;22.70;75.70;;;;;;5055574;28;20200;-74
2022/05/29 05:55:30;;;;;;;0.63;0.25;;;22.70;75.80;;;;;;5055245;28;20228;-74
2022/05/29 05:57:57;;;;;;;1.35;0.20;;;22.70;75.80;;;;;;5055147;28;20730;-74
2022/05/29 06:00:24;;;;;;;2.30;0.47;;;22.70;75.90;;;;;;5055075;28;20290;-74
2022/05/29 06:02:52;;;;;;;1.13;0.30;;;22.70;76.00;;;;;;5055098;28;20196;-74
2022/05/29 06:05:19;;;;;;;4.90;0.50;;;22.70;76.10;;;;;;5054980;28;20248;-74
2022/05/29 06:07:46;;;;;;;1.30;0.32;;;22.70;76.20;;;;;;5055272;28;20291;-74
2022/05/29 06:10:13;;;;;;;1.48;0.30;;;22.70;76.30;;;;;;5055250;28;20204;-74
2022/05/29 06:12:40;;;;;;;0.77;0.20;;;22.70;77.20;;;;;;5055259;28;20188;-74
2022/05/29 06:15:09;;;;;;;1.45;0.20;;;22.70;76.60;;;;;;5054976;28;20220;-74
2022/05/29 06:17:36;;;;;;;2.33;0.40;;;22.70;76.60;;;;;;5055085;28;20203;-74
2022/05/29 06:20:06;;;;;;;4.88;0.50;;;22.70;76.60;;;;;;5055858;28;20246;-74
2022/05/29 06:22:36;;;;;;;0.75;0.30;;;22.70;76.60;;;;;;5055153;28;20262;-74
2022/05/29 06:25:04;;;;;;;1.08;0.35;;;22.70;76.60;;;;;;5054832;28;20227;-74
2022/05/29 06:27:30;;;;;;;1.17;0.20;;;22.70;76.60;;;;;;5054556;28;20207;-74
2022/05/29 06:29:57;;;;;;;0.30;0.30;;;22.70;76.60;;;;;;5054853;28;20242;-74
2022/05/29 06:32:24;;;;;;;0.45;0.20;;;22.70;76.60;;;;;;5054468;28;20204;-74
2022/05/29 06:34:51;;;;;;;1.13;0.40;;;22.70;76.60;;;;;;5055404;28;20312;-74
2022/05/29 06:37:19;;;;;;;1.75;0.20;;;22.70;76.70;;;;;;5054675;28;20307;-74
2022/05/29 06:39:47;;;;;;;2.03;0.50;;;22.70;76.80;;;;;;5054629;28;20295;-74
2022/05/29 06:42:15;;;;;;;3.97;0.60;;;22.70;77.00;;;;;;5054629;28;20203;-74
2022/05/29 06:44:42;;;;;;;2.45;0.32;;;22.70;77.10;;;;;;5054261;28;20235;-74
2022/05/29 06:47:09;;;;;;;6.07;0.40;;;22.70;77.20;;;;;;5054198;28;20686;-74
2022/05/29 06:49:37;;;;;;;1.88;0.35;;;22.70;78.10;;;;;;5054424;28;20200;-74
2022/05/29 06:52:07;;;;;;;0.65;0.50;;;22.70;77.50;;;;;;5054433;28;20291;-74
2022/05/29 06:54:36;;;;;;;1.33;0.20;;;22.70;77.50;;;;;;5054036;28;20223;-74
2022/05/29 06:57:04;;;;;;;2.28;0.40;;;22.70;78.30;;;;;;5054209;28;20224;-74
2022/05/29 06:59:31;;;;;;;1.20;0.28;;;22.70;77.70;;;;;;5054264;28;20203;-74
2022/05/29 07:07:28;;;;;;;4.22;0.68;;;22.70;78.00;;;;;;5053973;28;20249;-74
2022/05/29 07:09:56;;;;;;;1.02;0.32;;;22.70;78.80;;;;;;5054090;28;20286;-74
2022/05/29 07:12:26;;;;;;;5.30;0.82;;;22.70;78.10;;;;;;5054021;28;20235;-75
2022/05/29 07:14:57;;;;;;;0.45;0.35;;;22.70;78.10;;;;;;5053752;28;20742;-75
2022/05/29 07:17:27;;;;;;;3.10;0.40;;;22.60;78.20;;;;;;5054471;28;20281;-76
2022/05/29 07:19:54;;;;;;;0.93;0.30;;;22.70;78.40;;;;;;5053893;28;20287;-76
2022/05/29 07:22:21;;;;;;;6.45;0.93;;;22.70;79.30;;;;;;5053809;28;20286;-76
2022/05/29 07:24:49;;;;;;;4.63;0.30;;;22.70;78.70;;;;;;5053720;28;20224;-76
2022/05/29 07:27:17;;;;;;;5.50;0.52;;;22.70;78.80;;;;;;5053704;28;20196;-75
2022/05/29 07:29:44;;;;;;;4.57;0.50;;;22.70;78.80;;;;;;5053754;28;20287;-75
2022/05/29 07:32:12;;;;;;;5.68;0.60;;;22.70;78.70;;;;;;5053717;28;20286;-75
2022/05/29 07:34:44;;;;;;;11.45;1.23;;;22.70;78.20;;;;;;5053123;28;20224;-75
2022/05/29 07:37:13;;;;;;;9.50;0.82;;;22.60;77.90;;;;;;5068606;22;20223;-76
2022/05/29 07:39:42;;;;;;;4.85;0.55;;;22.60;77.80;;;;;;5053468;28;20207;-77
2022/05/29 07:45:01;;;;;;;3.15;0.80;;;22.60;78.00;;;;;;5047079;22;20311;-77
2022/05/29 07:47:34;;;;;;;7.05;0.93;;;22.60;77.80;;;;;;5055435;28;20227;-81
2022/05/29 07:50:01;;;;;;;10.05;1.00;;;22.60;77.30;;;;;;5056249;28;20266;-80
2022/05/29 07:52:28;;;;;;;5.32;0.60;;;22.60;76.90;;;;;;5055691;28;20227;-80
2022/05/29 07:54:55;;;;;;;6.18;0.50;;;22.60;76.50;;;;;;5055380;28;20298;-81
2022/05/29 07:57:22;;;;;;;3.58;0.50;;;22.50;76.40;;;;;;5056232;28;20252;-81
2022/05/29 07:59:49;;;;;;;1.55;0.63;;;22.50;76.10;;;;;;5055669;28;20200;-80
2022/05/29 08:02:17;;;;;;;1.70;0.60;;;22.50;75.50;;;;;;5055642;28;20203;-81
2022/05/29 08:04:45;;;;;;;1.02;0.60;;;22.50;75.00;;;;;;5055590;28;20254;-80
2022/05/29 08:07:14;;;;;;;1.05;0.57;;;22.50;74.50;;;;;;5055385;28;20192;-80
2022/05/29 08:09:41;;;;;;;2.20;0.88;;;22.40;74.00;;;;;;5055433;28;20742;-80
2022/05/29 08:12:09;;;;;;;6.93;0.98;;;22.40;73.50;;;;;;5056487;28;20642;-81
2022/05/29 08:14:36;;;;;;;2.97;0.80;;;22.40;73.00;;;;;;5057003;28;20315;-81
2022/05/29 08:17:03;;;;;;;13.65;1.52;;;22.40;72.50;;;;;;5056489;28;20255;-82
2022/05/29 08:19:33;;;;;;;22.67;2.25;;;22.40;72.00;;;;;;5056571;28;20644;-82
2022/05/29 08:22:00;;;;;;;16.45;1.38;;;22.30;71.40;;;;;;5056100;28;20223;-80
2022/05/29 08:32:40;;;;;;;9.18;1.17;;;22.30;69.80;;;;;;5056032;28;20188;-82
2022/05/29 08:35:08;;;;;;;10.73;1.15;;;22.30;69.30;;;;;;5054651;28;20273;-80
2022/05/29 08:37:36;;;;;;;12.52;4.50;;;22.30;68.70;;;;;;5054110;28;20220;-79
2022/05/29 08:40:03;;;;;;;21.58;5.28;;;22.30;68.20;;;;;;5054976;28;20204;-79
2022/05/29 08:42:31;;;;;;;11.38;3.35;;;22.30;67.30;;;;;;5054745;28;20196;-78
2022/05/29 08:45:00;;;;;;;4.75;2.58;;;22.30;66.50;;;;;;5054022;28;20228;-79
2022/05/29 08:47:28;;;;;;;11.80;3.85;;;22.20;65.50;;;;;;5056745;28;20223;-79
2022/05/29 08:49:56;;;;;;;8.85;3.15;;;22.20;64.70;;;;;;5058068;28;20200;-78
2022/05/29 08:52:39;;;;;;;7.60;2.67;;;22.10;64.10;;;;;;5058069;28;20204;-79
2022/05/29 08:55:12;;;;;;;4.18;1.98;;;22.20;63.60;;;;;;5057562;28;20311;-78
2022/05/29 08:57:54;;;;;;;3.90;2.00;;;22.10;62.60;;;;;;5057539;28;20210;-78
2022/05/29 09:00:30;;;;;;;5.25;1.83;;;22.10;61.40;;;;;;5056692;28;20188;-78
2022/05/29 09:03:14;;;;;;;3.88;1.50;;;22.00;60.70;;;;;;5057291;28;20191;-79
2022/05/29 09:05:45;;;;;;;2.25;1.20;;;22.00;60.00;;;;;;5061019;28;20325;-78
2022/05/29 09:08:17;;;;;;;1.30;0.88;;;21.90;59.40;;;;;;5061694;28;20184;-78
2022/05/29 09:10:47;;;;;;;1.45;0.93;;;21.90;58.70;;;;;;5061859;28;20188;-79
2022/05/29 09:13:18;;;;;;;1.40;1.15;;;21.90;58.30;;;;;;5061098;28;20656;-79
2022/05/29 09:15:51;;;;;;;3.17;1.42;;;21.90;57.80;;;;;;5061955;28;20227;-79
2022/05/29 09:18:25;;;;;;;5.97;1.52;;;21.80;57.10;;;;;;5062375;28;20555;-77
2022/05/29 09:20:59;;;;;;;2.05;1.30;;;21.80;56.50;;;;;;5062039;28;20183;-78
2022/05/29 09:23:32;;;;;;;2.63;1.10;;;21.80;56.10;;;;;;5061599;28;20192;-77
2022/05/29 09:25:59;;;;;;;4.38;0.95;;;21.80;55.80;;;;;;5061230;28;20220;-76
2022/05/29 09:28:34;;;;;;;2.72;0.93;;;21.80;55.30;;;;;;5062033;28;20288;-78
2022/05/29 09:31:08;;;;;;;5.13;1.35;;;21.80;54.60;;;;;;5061752;28;20187;-78
2022/05/29 09:33:37;;;;;;;3.60;1.13;;;21.80;54.20;;;;;;5063555;28;20297;-81
2022/05/29 09:36:13;;;;;;;5.97;1.52;;;21.80;54.00;;;;;;5064358;28;20224;-81
2022/05/29 09:38:47;;;;;;;3.90;1.13;;;21.80;53.70;;;;;;5062799;28;20267;-81
2022/05/29 09:41:22;;;;;;;1.55;1.00;;;21.90;53.50;;;;;;5062888;28;20665;-81
2022/05/29 09:44:12;;;;;;;2.38;1.25;;;21.90;53.50;;;;;;5062592;28;20623;-81
2022/05/29 09:46:41;;;;;;;5.53;1.42;;;22.00;52.90;;;;;;5062912;28;20181;-83
2022/05/29 09:52:12;;;;;;;4.78;1.33;;;21.90;52.20;;;;;;5062618;28;20227;-82
2022/05/29 09:54:45;;;;;;;5.55;1.30;;;22.00;52.00;;;;;;5062502;28;20215;-82
2022/05/29 09:57:20;;;;;;;3.60;1.30;;;22.00;51.70;;;;;;5060700;28;20307;-81
2022/05/29 09:59:50;;;;;;;4.18;1.00;;;22.00;51.50;;;;;;5061650;28;20180;-81
2022/05/29 10:02:31;;;;;;;4.07;1.13;;;22.00;51.20;;;;;;5062172;28;20275;-82
2022/05/29 10:05:00;;;;;;;3.63;0.95;;;22.00;50.90;;;;;;5061278;28;20220;-78
2022/05/29 10:07:37;;;;;;;2.63;0.80;;;22.00;50.70;;;;;;5061163;28;20250;-80
2022/05/29 10:10:08;;;;;;;3.63;1.17;;;22.10;50.60;;;;;;5061352;28;20204;-80
2022/05/29 10:12:47;;;;;;;4.70;0.98;;;22.00;50.30;;;;;;5061962;28;20535;-79
2022/05/29 10:15:33;;;;;;;10.65;1.27;;;22.10;50.10;;;;;;5063172;28;20227;-81
2022/05/29 10:18:04;;;;;;;8.35;1.65;;;22.10;50.00;;;;;;5062275;28;20212;-81
2022/05/29 10:20:33;;;;;;;23.60;2.00;;;22.10;49.70;;;;;;5064638;28;20189;-82
2022/05/29 10:23:04;;;;;;;12.85;1.33;;;22.10;49.50;;;;;;5064995;28;20219;-84
2022/05/29 10:25:34;;;;;;;14.32;1.83;;;22.10;49.30;;;;;;5064647;28;20223;-83
2022/05/29 10:28:05;;;;;;;12.40;1.92;;;22.10;49.20;;;;;;5061556;28;20212;-82
2022/05/29 10:30:36;;;;;;;9.70;1.67;;;22.10;49.00;;;;;;5061374;28;20271;-83
2022/05/29 10:33:07;;;;;;;8.13;1.73;;;22.20;48.90;;;;;;5060903;28;20267;-83
2022/05/29 10:35:37;;;;;;;17.63;1.27;;;22.20;48.90;;;;;;5062015;28;20231;-83
2022/05/29 10:38:26;;;;;;;10.18;1.73;;;22.20;49.00;;;;;;5061306;28;20630;-83
2022/05/29 10:40:56;;;;;;;7.63;1.73;;;22.30;49.00;;;;;;5062032;28;20188;-83
2022/05/29 10:43:39;;;;;;;9.30;1.35;;;22.20;48.90;;;;;;5062356;28;20215;-83
2022/05/29 10:46:11;;;;;;;7.68;1.58;;;22.30;49.00;;;;;;5062085;28;20314;-84
2022/05/29 10:48:54;;;;;;;16.80;1.67;;;22.30;49.00;;;;;;5065767;28;20185;-84
2022/05/29 10:51:23;;;;;;;5.22;1.20;;;22.30;49.50;;;;;;5068584;28;20663;-85
2022/05/29 10:54:22;;;;;;;16.75;1.33;;;22.30;48.80;;;;;;5066657;28;20250;-83
2022/05/29 10:57:05;;;;;;;11.90;1.42;;;22.30;48.60;;;;;;5063628;28;20259;-79
2022/05/29 11:00:04;;;;;;;3.33;1.20;;;22.30;48.70;;;;;;5059557;28;20211;-79
2022/05/29 11:06:03;;;;;;;7.40;1.77;;;22.30;48.70;;;;;;5056880;28;20578;-77
2022/05/29 11:08:41;;;;;;;7.32;1.70;;;22.40;48.70;;;;;;5059048;28;20263;-77
2022/05/29 11:11:22;;;;;;;6.57;1.80;;;22.40;48.70;;;;;;5054637;28;20630;-78
2022/05/29 11:14:08;;;;;;;54.38;4.32;;;22.40;48.60;;;;;;5054214;28;20184;-78
2022/05/29 11:16:47;;;;;;;14.70;2.63;;;22.40;48.50;;;;;;5055329;28;20184;-78
2022/05/29 11:19:30;;;;;;;26.67;3.65;;;22.40;48.40;;;;;;5056420;28;20635;-77
2022/05/29 11:22:10;;;;;;;23.67;3.40;;;22.40;48.30;;;;;;5056526;28;20258;-77
2022/05/29 11:24:52;;;;;;;30.02;3.55;;;22.40;48.20;;;;;;5057356;28;20254;-77
2022/05/29 11:27:46;;;;;;;16.73;2.83;;;22.40;48.10;;;;;;5054659;28;20188;-78
2022/05/29 11:30:24;;;;;;;40.22;4.40;;;22.40;48.00;;;;;;5055356;28;20194;-78
2022/05/29 11:33:12;;;;;;;24.20;3.85;;;22.40;48.10;;;;;;5055992;28;20200;-78
2022/05/29 11:35:54;;;;;;;19.83;3.33;;;22.40;48.00;;;;;;5054715;28;20255;-78
2022/05/29 11:38:44;;;;;;;21.23;2.45;;;22.40;48.00;;;;;;5053659;28;20239;-76
2022/05/29 11:41:17;;;;;;;27.92;4.18;;;22.40;47.90;;;;;;5055266;28;20180;-79
2022/05/29 11:43:52;;;;;;;26.17;3.47;;;22.40;48.00;;;;;;5056374;28;20275;-79
2022/05/29 11:52:10;;;;;;;26.15;3.50;;;22.40;47.90;;;;;;5057673;28;20184;-80
2022/05/29 11:54:44;;;;;;;24.52;3.50;;;22.40;47.80;;;;;;5058127;28;20284;-80
2022/05/29 11:57:15;;;;;;;21.05;2.92;;;22.40;47.80;;;;;;5057108;28;20311;-79
2022/05/29 11:59:50;;;;;;;12.80;2.50;;;22.40;47.80;;;;;;5056728;28;20184;-79
2022/05/29 12:02:33;;;;;;;18.27;2.47;;;22.40;47.70;;;;;;5056921;28;20249;-79
2022/05/29 12:05:09;;;;;;;19.92;2.75;;;22.40;47.70;;;;;;5056027;28;20220;-80
2022/05/29 12:07:42;;;;;;;14.35;2.05;;;22.40;47.70;;;;;;5056912;28;20180;-79
2022/05/29 12:10:18;;;;;;;10.15;1.98;;;22.40;47.70;;;;;;5056719;28;20305;-79
2022/05/29 12:12:49;;;;;;;7.97;2.38;;;22.40;47.60;;;;;;5056762;28;20270;-80
2022/05/29 12:15:20;;;;;;;10.55;1.88;;;22.40;47.60;;;;;;5057276;28;20240;-82
2022/05/29 12:17:52;;;;;;;12.10;1.50;;;22.40;47.50;;;;;;5056760;28;20201;-80
2022/05/29 12:20:24;;;;;;;9.48;1.70;;;22.40;47.50;;;;;;5057864;28;20703;-82
2022/05/29 12:22:56;;;;;;;8.80;1.40;;;22.40;47.40;;;;;;5059619;28;20266;-82
2022/05/29 12:25:32;;;;;;;5.00;1.33;;;22.40;47.40;;;;;;5061450;28;20679;-82
2022/05/29 12:28:02;;;;;;;5.90;1.23;;;22.40;47.40;;;;;;5058372;28;20275;-77
2022/05/29 12:30:35;;;;;;;8.30;0.90;;;22.40;47.40;;;;;;5061363;28;20184;-81
2022/05/29 12:33:12;;;;;;;13.93;1.55;;;22.40;47.40;;;;;;5065042;28;20224;-81
2022/05/29 12:35:46;;;;;;;5.65;1.20;;;22.40;47.40;;;;;;5062990;28;20310;-80
2022/05/29 12:38:30;;;;;;;9.00;1.33;;;22.40;47.50;;;;;;5061050;28;20295;-79
2022/05/29 12:41:19;;;;;;;13.30;1.13;;;22.50;47.60;;;;;;5058993;28;20195;-77
2022/05/29 12:44:17;;;;;;;3.40;1.00;;;22.50;47.60;;;;;;5057496;28;20203;-77
2022/05/29 12:47:25;;;;;;;6.03;0.82;;;22.50;47.60;;;;;;5048912;28;20200;-77
2022/05/29 12:50:11;;;;;;;12.35;1.00;;;22.50;47.60;;;;;;5010383;28;20204;-77
2022/05/29 12:53:06;;;;;;;3.80;0.93;;;22.50;47.70;;;;;;5056961;28;20188;-76
2022/05/29 12:55:49;;;;;;;5.05;0.70;;;22.50;47.70;;;;;;5058280;28;20230;-78
2022/05/29 12:58:36;;;;;;;1.48;0.40;;;22.50;47.80;;;;;;5057573;28;20211;-77
2022/05/29 13:01:26;;;;;;;2.25;0.50;;;22.50;47.70;;;;;;5056795;28;20275;-78
2022/05/29 13:04:20;;;;;;;1.60;0.63;;;22.50;47.80;;;;;;5059604;28;20195;-80
2022/05/29 13:07:10;;;;;;;2.30;0.60;;;22.50;47.80;;;;;;5059904;28;20273;-77
2022/05/29 13:10:12;;;;;;;2.97;0.50;;;22.50;47.90;;;;;;5057654;28;20189;-79
2022/05/29 13:12:43;;;;;;;0.38;0.35;;;22.50;48.50;;;;;;5060540;28;20192;-79
2022/05/29 13:15:13;;;;;;;0.70;0.30;;;22.50;48.00;;;;;;5059248;28;20243;-80
2022/05/29 13:17:41;;;;;;;2.90;0.50;;;22.50;48.10;;;;;;5060218;28;20641;-82
2022/05/29 13:20:15;;;;;;;1.65;0.82;;;22.50;48.10;;;;;;5060652;28;20196;-77
2022/05/29 13:23:00;;;;;;;1.10;0.30;;;22.50;48.20;;;;;;5060102;28;20750;-77
2022/05/29 13:25:30;;;;;;;3.00;0.30;;;22.60;48.30;;;;;;5057197;28;20230;-77
2022/05/29 13:27:59;;;;;;;3.88;0.40;;;22.60;48.50;;;;;;5059281;28;20695;-80
2022/05/29 13:31:07;;;;;;;1.48;0.30;;;22.60;48.60;;;;;;5061571;28;20287;-80
2022/05/29 13:33:50;;;;;;;3.75;0.30;;;22.70;48.70;;;;;;5058486;28;20639;-80
2022/05/29 13:37:07;;;;;;;3.60;0.47;;;22.60;48.80;;;;;;5060890;28;20215;-80
2022/05/29 13:39:59;;;;;;;2.92;0.43;;;22.70;49.00;;;;;;5060818;28;20212;-81
2022/05/29 13:42:32;;;;;;;8.75;0.75;;;22.60;49.20;;;;;;5060599;28;20214;-80
2022/05/29 13:45:00;;;;;;;2.33;0.43;;;22.60;49.30;;;;;;5062078;28;20676;-80
2022/05/29 13:47:36;;;;;;;4.63;0.30;;;22.60;49.30;;;;;;5060081;28;20204;-80